createdAt,value
2019-04-21T00:02:07.385Z,13.40
2019-04-21T00:04:53.240Z,13.30
2019-04-21T00:07:27.755Z,13.30
2019-04-21T00:09:58.387Z,13.30
2019-04-21T00:12:22.032Z,13.30
2019-04-21T00:14:51.337Z,13.30
2019-04-21T00:17:13.191Z,13.30
2019-04-21T00:19:44.621Z,13.20
2019-04-21T00:22:29.350Z,13.10
2019-04-21T00:25:04.375Z,13.10
2019-04-21T00:27:28.543Z,13.10
2019-04-21T00:30:08.726Z,13.10
2019-04-21T00:32:29.226Z,13.10
2019-04-21T00:34:52.293Z,13.10
2019-04-21T00:37:26.853Z,12.80
2019-04-21T00:40:09.421Z,12.60
2019-04-21T00:42:34.410Z,12.50
2019-04-21T00:45:01.779Z,12.40
2019-04-21T00:47:53.323Z,12.20
2019-04-21T00:50:12.797Z,12.10
2019-04-21T00:53:00.765Z,12.10
2019-04-21T00:55:29.668Z,12.00
2019-04-21T01:00:22.120Z,11.80
2019-04-21T01:05:21.443Z,11.80
2019-04-21T01:07:47.936Z,11.70
2019-04-21T01:10:16.245Z,11.80
2019-04-21T01:13:04.342Z,11.70
2019-04-21T01:17:51.603Z,11.70
2019-04-21T01:20:12.956Z,11.70
2019-04-21T01:22:31.471Z,11.70
2019-04-21T01:25:09.065Z,11.70
2019-04-21T01:27:49.541Z,11.70
2019-04-21T01:30:24.311Z,11.60
2019-04-21T01:32:53.358Z,11.60
2019-04-21T01:35:21.164Z,11.60
2019-04-21T01:40:29.719Z,11.50
2019-04-21T01:42:56.719Z,11.50
2019-04-21T01:45:22.429Z,11.50
2019-04-21T01:47:54.981Z,11.50
2019-04-21T01:50:27.192Z,11.50
2019-04-21T01:53:02.021Z,11.50
2019-04-21T01:55:35.641Z,11.60
2019-04-21T01:58:02.256Z,11.50
2019-04-21T02:00:39.615Z,11.50
2019-04-21T02:03:31.505Z,11.50
2019-04-21T02:05:45.406Z,11.50
2019-04-21T02:08:13.463Z,11.50
2019-04-21T02:10:49.719Z,11.50
2019-04-21T02:13:12.116Z,11.40
2019-04-21T02:15:52.825Z,11.40
2019-04-21T02:18:11.984Z,11.40
2019-04-21T02:20:32.678Z,11.40
2019-04-21T02:25:44.182Z,11.30
2019-04-21T02:28:23.467Z,11.20
2019-04-21T02:33:39.151Z,11.10
2019-04-21T02:36:08.895Z,11.10
2019-04-21T02:38:33.825Z,11.10
2019-04-21T02:40:51.441Z,11.10
2019-04-21T02:43:50.030Z,11.10
2019-04-21T02:46:04.393Z,11.00
2019-04-21T02:48:37.074Z,11.00
2019-04-21T02:50:52.825Z,11.00
2019-04-21T02:56:03.490Z,11.00
2019-04-21T02:58:39.911Z,11.00
2019-04-21T03:01:24.585Z,10.80
2019-04-21T03:06:39.846Z,10.90
2019-04-21T03:09:12.898Z,10.90
2019-04-21T03:11:44.857Z,10.90
2019-04-21T03:16:32.961Z,10.80
2019-04-21T03:19:15.981Z,10.70
2019-04-21T03:21:38.357Z,10.70
2019-04-21T03:24:05.513Z,10.70
2019-04-21T03:26:54.385Z,10.60
2019-04-21T03:29:12.150Z,10.60
2019-04-21T03:32:14.340Z,10.60
2019-04-21T03:36:56.884Z,10.60
2019-04-21T03:39:09.542Z,10.60
2019-04-21T03:41:52.586Z,10.60
2019-04-21T03:44:14.570Z,10.60
2019-04-21T03:49:22.697Z,10.60
2019-04-21T03:51:48.714Z,10.60
2019-04-21T03:54:26.391Z,10.50
2019-04-21T03:56:59.103Z,10.50
2019-04-21T03:59:11.546Z,10.50
2019-04-21T04:04:35.517Z,10.50
2019-04-21T04:07:18.590Z,10.50
2019-04-21T04:09:44.696Z,10.50
2019-04-21T04:12:12.514Z,10.50
2019-04-21T04:22:15.330Z,10.00
2019-04-21T04:27:22.470Z,9.70
2019-04-21T04:29:39.805Z,9.70
2019-04-21T04:32:14.655Z,9.60
2019-04-21T04:39:50.150Z,9.60
2019-04-21T04:47:20.634Z,9.60
2019-04-21T04:52:31.720Z,9.60
2019-04-21T04:57:27.458Z,9.60
2019-04-21T04:59:47.524Z,9.60
2019-04-21T05:04:57.727Z,9.70
2019-04-21T05:07:29.846Z,9.70
2019-04-21T05:10:05.806Z,9.80
2019-04-21T05:12:15.883Z,9.90
2019-04-21T05:14:51.702Z,9.90
2019-04-21T05:20:03.922Z,10.00
2019-04-21T05:24:41.941Z,10.20
2019-04-21T05:27:08.708Z,10.30
2019-04-21T05:29:55.728Z,10.30
2019-04-21T05:32:17.165Z,10.40
2019-04-21T05:34:58.027Z,10.50
2019-04-21T05:37:33.221Z,10.60
2019-04-21T05:39:57.463Z,10.80
2019-04-21T05:42:27.510Z,10.90
2019-04-21T05:45:17.443Z,11.00
2019-04-21T05:47:55.791Z,11.10
2019-04-21T05:50:06.246Z,11.20
2019-04-21T05:52:35.376Z,11.40
2019-04-21T05:55:09.271Z,11.50
2019-04-21T05:57:38.104Z,11.60
2019-04-21T06:00:12.441Z,11.80
2019-04-21T06:02:43.770Z,11.80
2019-04-21T06:05:20.615Z,11.90
2019-04-21T06:07:39.478Z,12.00
2019-04-21T06:10:12.659Z,12.10
2019-04-21T06:12:50.376Z,12.30
2019-04-21T06:15:14.163Z,12.50
2019-04-21T06:17:48.841Z,12.60
2019-04-21T06:20:17.169Z,12.70
2019-04-21T06:22:49.071Z,12.80
2019-04-21T06:27:45.900Z,12.80
2019-04-21T06:30:15.247Z,12.90
2019-04-21T06:35:45.499Z,13.30
2019-04-21T06:38:09.587Z,13.50
2019-04-21T06:40:38.893Z,13.50
2019-04-21T06:43:14.214Z,13.80
2019-04-21T06:45:45.841Z,14.20
2019-04-21T06:48:04.482Z,14.30
2019-04-21T06:50:39.895Z,14.10
2019-04-21T06:53:07.138Z,14.10
2019-04-21T06:55:32.392Z,14.10
2019-04-21T06:58:07.884Z,14.20
2019-04-21T07:00:35.895Z,14.40
2019-04-21T07:03:14.191Z,14.30
2019-04-21T07:05:44.076Z,14.50
2019-04-21T07:08:24.579Z,14.40
2019-04-21T07:10:37.260Z,14.60
2019-04-21T07:13:03.925Z,14.90
2019-04-21T07:15:39.967Z,15.00
2019-04-21T07:18:16.941Z,15.10
2019-04-21T07:20:36.757Z,15.20
2019-04-21T07:23:10.503Z,15.40
2019-04-21T07:25:41.158Z,15.40
2019-04-21T07:28:10.834Z,15.60
2019-04-21T07:30:59.411Z,15.60
2019-04-21T07:33:37.402Z,15.80
2019-04-21T07:35:41.101Z,16.00
2019-04-21T07:38:15.017Z,16.00
2019-04-21T07:40:36.404Z,15.80
2019-04-21T07:43:05.657Z,16.10
2019-04-21T07:45:36.487Z,16.00
2019-04-21T07:48:12.444Z,16.30
2019-04-21T07:50:47.421Z,16.30
2019-04-21T07:53:38.537Z,16.60
2019-04-21T07:55:42.954Z,16.40
2019-04-21T07:58:26.671Z,16.40
2019-04-21T08:01:04.437Z,16.70
2019-04-21T08:03:33.668Z,17.10
2019-04-21T08:06:02.349Z,17.30
2019-04-21T08:08:33.766Z,17.30
2019-04-21T08:11:01.603Z,17.90
2019-04-21T08:13:48.660Z,18.00
2019-04-21T08:16:07.377Z,18.30
2019-04-21T08:18:35.367Z,18.40
2019-04-21T08:21:02.734Z,18.40
2019-04-21T08:23:31.498Z,18.60
2019-04-21T08:26:04.657Z,18.90
2019-04-21T08:31:07.968Z,18.70
2019-04-21T08:33:41.459Z,18.90
2019-04-21T08:36:17.783Z,19.30
2019-04-21T08:38:35.860Z,19.70
2019-04-21T08:41:11.066Z,19.80
2019-04-21T08:43:42.529Z,20.20
2019-04-21T08:46:06.826Z,20.30
2019-04-21T08:48:37.548Z,20.10
2019-04-21T08:51:22.481Z,20.40
2019-04-21T08:53:41.158Z,20.80
2019-04-21T08:56:10.532Z,21.20
2019-04-21T08:59:08.694Z,21.70
2019-04-21T09:03:58.776Z,21.70
2019-04-21T09:06:50.052Z,22.40
2019-04-21T09:09:08.182Z,22.00
2019-04-21T09:11:30.716Z,22.00
2019-04-21T09:14:05.213Z,22.30
2019-04-21T09:16:33.837Z,22.60
2019-04-21T09:18:56.918Z,23.30
2019-04-21T09:21:37.426Z,23.30
2019-04-21T09:24:09.873Z,24.30
2019-04-21T09:26:29.554Z,24.10
2019-04-21T09:28:57.327Z,24.70
2019-04-21T09:31:24.135Z,25.10
2019-04-21T09:33:50.844Z,24.20
2019-04-21T09:36:21.192Z,24.20
2019-04-21T09:38:58.708Z,24.10
2019-04-21T09:41:22.435Z,24.50
2019-04-21T09:43:52.113Z,23.80
2019-04-21T09:46:18.562Z,24.30
2019-04-21T09:48:55.642Z,25.00
2019-04-21T09:51:17.828Z,24.80
2019-04-21T09:53:54.611Z,24.80
2019-04-21T09:56:29.963Z,25.20
2019-04-21T09:58:51.419Z,24.50
2019-04-21T10:01:23.954Z,25.10
2019-04-21T10:03:53.318Z,25.10
2019-04-21T10:06:19.568Z,25.70
2019-04-21T10:08:51.557Z,25.80
2019-04-21T10:11:20.770Z,24.80
2019-04-21T10:13:48.845Z,24.70
2019-04-21T10:16:36.399Z,25.00
2019-04-21T10:19:05.247Z,25.60
2019-04-21T10:21:33.941Z,24.70
2019-04-21T10:24:02.523Z,24.90
2019-04-21T10:26:31.089Z,24.80
2019-04-21T10:29:08.554Z,24.90
2019-04-21T10:31:30.013Z,25.40
2019-04-21T10:33:58.961Z,26.10
2019-04-21T10:36:27.744Z,24.70
2019-04-21T10:38:58.997Z,24.70
2019-04-21T10:41:28.007Z,24.90
2019-04-21T10:43:56.702Z,25.20
2019-04-21T10:46:26.598Z,26.00
2019-04-21T10:48:56.796Z,25.40
2019-04-21T10:51:25.585Z,25.20
2019-04-21T10:53:55.864Z,26.80
2019-04-21T10:56:31.579Z,26.90
2019-04-21T10:58:56.170Z,26.60
2019-04-21T11:01:27.187Z,25.50
2019-04-21T11:03:58.518Z,25.20
2019-04-21T11:06:28.617Z,25.70
2019-04-21T11:08:59.578Z,25.90
2019-04-21T11:11:27.978Z,25.20
2019-04-21T11:13:56.870Z,25.60
2019-04-21T11:16:26.862Z,26.10
2019-04-21T11:18:56.011Z,25.40
2019-04-21T11:21:24.979Z,25.00
2019-04-21T11:23:54.242Z,25.80
2019-04-21T11:26:24.131Z,27.00
2019-04-21T11:28:53.054Z,25.60
2019-04-21T11:31:22.907Z,25.80
2019-04-21T11:33:51.647Z,25.80
2019-04-21T11:36:21.618Z,25.70
2019-04-21T11:39:08.407Z,26.80
2019-04-21T11:41:25.641Z,25.60
2019-04-21T11:43:54.993Z,26.40
2019-04-21T11:46:24.504Z,26.50
2019-04-21T11:48:54.602Z,27.20
2019-04-21T11:51:24.796Z,26.10
2019-04-21T11:53:54.900Z,26.40
2019-04-21T11:56:24.975Z,25.80
2019-04-21T11:58:54.101Z,26.20
2019-04-21T12:01:23.474Z,26.00
2019-04-21T12:03:53.682Z,25.50
2019-04-21T12:06:28.650Z,26.60
2019-04-21T12:08:55.516Z,27.50
2019-04-21T12:11:23.580Z,27.60
2019-04-21T12:13:52.262Z,27.00
2019-04-21T12:16:21.164Z,27.40
2019-04-21T12:18:50.982Z,26.90
2019-04-21T12:21:21.150Z,27.20
2019-04-21T12:23:50.290Z,26.50
2019-04-21T12:26:20.040Z,26.60
2019-04-21T12:28:50.002Z,26.20
2019-04-21T12:31:27.631Z,26.30
2019-04-21T12:33:58.154Z,26.30
2019-04-21T12:36:27.554Z,28.10
2019-04-21T12:39:00.064Z,27.20
2019-04-21T12:41:26.736Z,27.20
2019-04-21T12:43:56.864Z,27.10
2019-04-21T12:46:25.778Z,27.40
2019-04-21T12:48:55.798Z,26.70
2019-04-21T12:51:25.868Z,27.40
2019-04-21T12:53:54.708Z,27.20
2019-04-21T12:56:23.442Z,26.50
2019-04-21T12:58:53.313Z,27.30
2019-04-21T13:01:23.083Z,26.60
2019-04-21T13:03:52.158Z,26.10
2019-04-21T13:06:21.420Z,27.00
2019-04-21T13:08:57.868Z,28.10
2019-04-21T13:11:21.396Z,28.50
2019-04-21T13:13:50.258Z,27.80
2019-04-21T13:16:19.235Z,28.30
2019-04-21T13:18:49.225Z,26.20
2019-04-21T13:21:18.150Z,27.50
2019-04-21T13:23:47.248Z,27.60
2019-04-21T13:26:27.173Z,27.10
2019-04-21T13:28:46.149Z,27.00
2019-04-21T13:31:16.057Z,26.50
2019-04-21T13:33:46.066Z,26.90
2019-04-21T13:36:15.796Z,26.90
2019-04-21T13:39:27.554Z,27.90
2019-04-21T13:41:41.857Z,28.40
2019-04-21T13:44:15.703Z,27.80
2019-04-21T13:46:46.941Z,27.70
2019-04-21T13:49:17.042Z,27.40
2019-04-21T13:51:46.205Z,27.20
2019-04-21T13:54:15.709Z,27.20
2019-04-21T13:56:44.936Z,27.00
2019-04-21T13:59:14.099Z,27.10
2019-04-21T14:01:43.681Z,27.60
2019-04-21T14:04:13.636Z,28.50
2019-04-21T14:06:42.548Z,27.30
2019-04-21T14:09:13.710Z,26.40
2019-04-21T14:11:43.489Z,26.30
2019-04-21T14:14:12.529Z,25.70
2019-04-21T14:16:42.337Z,26.20
2019-04-21T14:19:11.097Z,25.70
2019-04-21T14:21:41.185Z,26.00
2019-04-21T14:24:10.888Z,25.80
2019-04-21T14:26:40.407Z,25.70
2019-04-21T14:29:09.867Z,27.00
2019-04-21T14:31:40.207Z,26.30
2019-04-21T14:34:10.045Z,26.10
2019-04-21T14:36:39.056Z,25.20
2019-04-21T14:39:10.536Z,25.10
2019-04-21T14:41:40.338Z,24.60
2019-04-21T14:44:09.259Z,23.70
2019-04-21T14:46:39.577Z,23.30
2019-04-21T14:49:11.024Z,22.90
2019-04-21T14:51:43.115Z,22.40
2019-04-21T14:54:20.619Z,22.30
2019-04-21T14:56:49.394Z,22.30
2019-04-21T14:59:19.238Z,22.10
2019-04-21T15:01:47.906Z,22.10
2019-04-21T15:04:17.723Z,22.10
2019-04-21T15:06:47.629Z,22.00
2019-04-21T15:09:16.463Z,21.80
2019-04-21T15:11:45.025Z,21.80
2019-04-21T15:14:13.859Z,21.80
2019-04-21T15:16:42.838Z,21.70
2019-04-21T15:19:12.802Z,21.60
2019-04-21T15:21:42.507Z,21.60
2019-04-21T15:24:12.179Z,21.60
2019-04-21T15:26:42.068Z,21.60
2019-04-21T15:29:10.902Z,21.60
2019-04-21T15:31:44.214Z,21.60
2019-04-21T15:34:10.835Z,21.50
2019-04-21T15:36:40.061Z,21.50
2019-04-21T15:39:09.959Z,21.40
2019-04-21T15:41:38.803Z,21.40
2019-04-21T15:44:08.311Z,21.40
2019-04-21T15:46:37.773Z,21.40
2019-04-21T15:49:07.005Z,21.30
2019-04-21T15:51:35.878Z,21.30
2019-04-21T15:54:04.942Z,21.20
2019-04-21T15:56:38.518Z,21.20
2019-04-21T15:59:12.574Z,21.10
2019-04-21T16:01:52.510Z,21.00
2019-04-21T16:04:21.163Z,21.10
2019-04-21T16:06:49.998Z,21.10
2019-04-21T16:09:21.662Z,21.10
2019-04-21T16:11:49.765Z,20.90
2019-04-21T16:14:18.725Z,20.90
2019-04-21T16:16:47.522Z,20.90
2019-04-21T16:19:16.481Z,20.80
2019-04-21T16:21:46.540Z,20.80
2019-04-21T16:24:16.422Z,20.80
2019-04-21T16:26:46.699Z,20.70
2019-04-21T16:29:15.566Z,20.70
2019-04-21T16:31:44.144Z,20.70
2019-04-21T16:34:13.768Z,20.60
2019-04-21T16:36:43.495Z,20.70
2019-04-21T16:39:13.197Z,20.70
2019-04-21T16:41:42.564Z,20.50
2019-04-21T16:44:11.375Z,20.50
2019-04-21T16:46:41.316Z,20.50
2019-04-21T16:49:09.996Z,20.50
2019-04-21T16:51:40.158Z,20.40
2019-04-21T16:54:10.646Z,20.40
2019-04-21T16:56:47.834Z,20.40
2019-04-21T16:59:20.959Z,20.30
2019-04-21T17:01:49.579Z,20.30
2019-04-21T17:04:18.304Z,20.20
2019-04-21T17:06:47.185Z,20.30
2019-04-21T17:09:16.800Z,20.10
2019-04-21T17:11:47.002Z,20.00
2019-04-21T17:14:32.945Z,20.00
2019-04-21T17:17:08.656Z,19.90
2019-04-21T17:19:25.341Z,19.90
2019-04-21T17:21:47.907Z,19.90
2019-04-21T17:24:16.826Z,19.90
2019-04-21T17:26:46.449Z,19.80
2019-04-21T17:29:16.834Z,19.80
2019-04-21T17:31:45.773Z,19.70
2019-04-21T17:34:19.470Z,19.70
2019-04-21T17:36:45.386Z,19.60
2019-04-21T17:39:14.202Z,19.60
2019-04-21T17:42:00.463Z,19.50
2019-04-21T17:44:13.216Z,19.50
2019-04-21T17:46:48.576Z,19.40
2019-04-21T17:49:12.820Z,19.40
2019-04-21T17:51:52.487Z,19.40
2019-04-21T17:54:29.689Z,19.30
2019-04-21T17:57:11.442Z,19.30
2019-04-21T17:59:51.062Z,19.30
2019-04-21T18:02:07.922Z,19.30
2019-04-21T18:04:40.912Z,19.20
2019-04-21T18:07:26.170Z,19.10
2019-04-21T18:10:00.177Z,19.10
2019-04-21T18:12:24.974Z,19.00
2019-04-21T18:14:51.506Z,18.90
2019-04-21T18:17:10.938Z,18.80
2019-04-21T18:19:43.137Z,18.80
2019-04-21T18:22:12.805Z,18.80
2019-04-21T18:24:55.517Z,18.70
2019-04-21T18:27:17.527Z,18.60
2019-04-21T18:29:46.551Z,18.50
2019-04-21T18:32:17.561Z,18.50
2019-04-21T18:35:02.417Z,18.40
2019-04-21T18:37:41.884Z,18.40
2019-04-21T18:40:13.669Z,18.20
2019-04-21T18:43:04.478Z,18.20
2019-04-21T18:48:10.929Z,18.10
2019-04-21T18:50:46.272Z,18.10
2019-04-21T18:53:23.884Z,18.10
2019-04-21T18:55:46.722Z,18.00
2019-04-21T18:58:13.833Z,17.90
2019-04-21T19:00:44.180Z,17.90
2019-04-21T19:03:19.216Z,17.90
2019-04-21T19:05:47.918Z,17.80
2019-04-21T19:08:31.262Z,17.80
2019-04-21T19:11:10.522Z,17.70
2019-04-21T19:13:47.856Z,17.60
2019-04-21T19:19:01.411Z,17.60
2019-04-21T19:21:08.774Z,17.60
2019-04-21T19:23:47.338Z,17.50
2019-04-21T19:26:15.066Z,17.50
2019-04-21T19:28:42.253Z,17.50
2019-04-21T19:31:12.291Z,17.40
2019-04-21T19:33:33.352Z,17.40
2019-04-21T19:35:49.785Z,17.30
2019-04-21T19:38:30.185Z,17.30
2019-04-21T19:41:03.986Z,17.20
2019-04-21T19:43:42.787Z,17.20
2019-04-21T19:46:12.849Z,17.20
2019-04-21T19:48:44.698Z,17.10
2019-04-21T19:51:10.592Z,17.10
2019-04-21T19:53:37.107Z,17.00
2019-04-21T19:55:52.083Z,16.90
2019-04-21T19:58:28.884Z,16.80
2019-04-21T20:00:56.324Z,16.80
2019-04-21T20:03:21.257Z,16.80
2019-04-21T20:06:00.388Z,16.70
2019-04-21T20:08:34.504Z,16.60
2019-04-21T20:11:13.451Z,16.60
2019-04-21T20:13:52.768Z,16.60
2019-04-21T20:16:17.834Z,16.50
2019-04-21T20:18:31.730Z,16.50
2019-04-21T20:20:52.194Z,16.50
2019-04-21T20:23:27.740Z,16.40
2019-04-21T20:25:55.866Z,16.30
2019-04-21T20:28:36.933Z,16.40
2019-04-21T20:31:14.796Z,16.30
2019-04-21T20:36:16.939Z,16.20
2019-04-21T20:38:31.103Z,16.20
2019-04-21T20:41:01.842Z,16.10
2019-04-21T20:43:42.730Z,16.10
2019-04-21T20:46:08.946Z,16.10
2019-04-21T20:48:40.096Z,16.00
2019-04-21T20:51:16.097Z,16.00
2019-04-21T20:53:44.390Z,16.00
2019-04-21T20:56:08.961Z,15.90
2019-04-21T20:58:40.704Z,15.90
2019-04-21T21:01:26.300Z,15.90
2019-04-21T21:03:46.071Z,15.80
2019-04-21T21:06:16.119Z,15.80
2019-04-21T21:08:46.804Z,15.70
2019-04-21T21:11:08.018Z,15.70
2019-04-21T21:13:50.675Z,15.70
2019-04-21T21:16:29.133Z,15.70
2019-04-21T21:21:15.618Z,15.60
2019-04-21T21:23:42.962Z,15.60
2019-04-21T21:26:20.050Z,15.60
2019-04-21T21:28:39.018Z,15.60
2019-04-21T21:31:12.991Z,15.70
2019-04-21T21:33:58.046Z,15.60
2019-04-21T21:36:33.451Z,15.60
2019-04-21T21:38:48.163Z,15.60
2019-04-21T21:41:11.960Z,15.60
2019-04-21T21:43:31.304Z,15.60
2019-04-21T21:46:04.863Z,15.60
2019-04-21T21:48:47.475Z,15.60
2019-04-21T21:51:05.931Z,15.50
2019-04-21T21:53:34.106Z,15.50
2019-04-21T21:56:02.640Z,15.40
2019-04-21T21:58:36.764Z,15.40
2019-04-21T22:01:04.880Z,15.20
2019-04-21T22:03:38.057Z,15.20
2019-04-21T22:06:08.137Z,15.20
2019-04-21T22:08:34.246Z,15.10
2019-04-21T22:11:03.327Z,15.10
2019-04-21T22:13:42.163Z,15.10
2019-04-21T22:16:06.796Z,15.00
2019-04-21T22:18:58.252Z,15.00
2019-04-21T22:21:12.822Z,14.90
2019-04-21T22:23:43.842Z,14.80
2019-04-21T22:26:05.182Z,14.80
2019-04-21T22:28:33.994Z,14.90
2019-04-21T22:31:05.559Z,14.80
2019-04-21T22:33:41.823Z,14.70
2019-04-21T22:36:18.263Z,14.60
2019-04-21T22:38:47.605Z,14.50
2019-04-21T22:41:16.093Z,14.40
2019-04-21T22:43:41.572Z,14.40
2019-04-21T22:46:05.343Z,14.30
2019-04-21T22:48:34.757Z,14.30
2019-04-21T22:51:07.326Z,14.20
2019-04-21T22:53:35.990Z,14.20
2019-04-21T22:56:13.792Z,14.20
2019-04-21T22:58:39.281Z,14.10
2019-04-21T23:01:07.726Z,14.00
2019-04-21T23:03:40.078Z,14.00
2019-04-21T23:06:14.266Z,14.00
2019-04-21T23:08:40.495Z,14.00
2019-04-21T23:11:10.938Z,14.00
2019-04-21T23:13:38.623Z,13.90
2019-04-21T23:16:08.522Z,13.90
2019-04-21T23:18:50.269Z,13.90
2019-04-21T23:21:24.927Z,13.80
2019-04-21T23:24:00.372Z,13.90
2019-04-21T23:26:26.732Z,13.80
2019-04-21T23:29:03.383Z,13.80
2019-04-21T23:31:34.417Z,13.70
2019-04-21T23:33:42.151Z,13.70
2019-04-21T23:36:16.907Z,13.70
2019-04-21T23:38:44.946Z,13.70
2019-04-21T23:41:11.471Z,13.60
2019-04-21T23:43:40.553Z,13.60
2019-04-21T23:46:19.842Z,13.60
2019-04-21T23:48:57.979Z,13.60
2019-04-21T23:51:21.424Z,13.50
2019-04-21T23:53:39.980Z,13.50
2019-04-21T23:56:08.885Z,13.40
2019-04-21T23:58:38.847Z,13.40
